createdAt,value
2018-12-21T00:00:21.075Z,8.20
2018-12-21T00:02:48.567Z,8.20
2018-12-21T00:05:16.172Z,8.40
2018-12-21T00:07:43.671Z,8.40
2018-12-21T00:10:11.171Z,8.30
2018-12-21T00:12:38.652Z,8.30
2018-12-21T00:15:06.993Z,8.40
2018-12-21T00:17:35.005Z,8.40
2018-12-21T00:20:02.523Z,8.40
2018-12-21T00:22:30.074Z,8.50
2018-12-21T00:24:57.511Z,8.40
2018-12-21T00:27:25.023Z,8.40
2018-12-21T00:29:52.475Z,8.40
2018-12-21T00:32:25.638Z,8.50
2018-12-21T00:34:58.838Z,8.60
2018-12-21T00:37:32.128Z,8.70
2018-12-21T00:40:05.351Z,8.70
2018-12-21T00:42:35.289Z,8.60
2018-12-21T00:45:06.201Z,8.70
2018-12-21T00:47:33.633Z,8.70
2018-12-21T00:50:01.091Z,8.70
2018-12-21T00:52:28.538Z,8.70
2018-12-21T00:54:55.979Z,8.70
2018-12-21T00:57:23.419Z,8.70
2018-12-21T00:59:50.903Z,8.70
2018-12-21T01:02:18.338Z,8.80
2018-12-21T01:04:45.785Z,8.80
2018-12-21T01:07:13.227Z,8.80
2018-12-21T01:09:40.738Z,8.90
2018-12-21T01:12:09.360Z,8.90
2018-12-21T01:14:36.907Z,8.90
2018-12-21T01:17:04.456Z,8.90
2018-12-21T01:19:31.902Z,8.90
2018-12-21T01:21:59.333Z,9.00
2018-12-21T01:24:26.852Z,8.90
2018-12-21T01:26:54.279Z,8.90
2018-12-21T01:29:21.747Z,8.80
2018-12-21T01:31:49.198Z,8.80
2018-12-21T01:34:16.665Z,8.90
2018-12-21T01:36:44.101Z,8.80
2018-12-21T01:39:11.562Z,8.80
2018-12-21T01:41:39.061Z,8.70
2018-12-21T01:44:06.561Z,8.70
2018-12-21T01:46:34.005Z,8.70
2018-12-21T01:49:01.448Z,8.70
2018-12-21T01:51:28.919Z,8.70
2018-12-21T01:53:56.374Z,8.70
2018-12-21T01:56:23.842Z,8.60
2018-12-21T01:58:51.279Z,8.70
2018-12-21T02:01:18.715Z,8.70
2018-12-21T02:03:46.229Z,8.80
2018-12-21T02:06:13.670Z,8.80
2018-12-21T02:08:41.097Z,8.80
2018-12-21T02:11:08.579Z,8.80
2018-12-21T02:13:36.011Z,8.80
2018-12-21T02:16:03.604Z,8.80
2018-12-21T02:18:31.076Z,8.70
2018-12-21T02:20:58.561Z,8.70
2018-12-21T02:23:26.023Z,8.70
2018-12-21T02:25:53.468Z,8.70
2018-12-21T02:28:20.903Z,8.70
2018-12-21T02:30:48.379Z,8.70
2018-12-21T02:33:15.825Z,8.70
2018-12-21T02:35:43.260Z,8.70
2018-12-21T02:38:10.713Z,8.70
2018-12-21T02:40:38.156Z,8.80
2018-12-21T02:43:05.610Z,8.80
2018-12-21T02:45:33.036Z,8.80
2018-12-21T02:48:00.501Z,8.90
2018-12-21T02:50:27.945Z,9.00
2018-12-21T02:52:55.387Z,9.00
2018-12-21T02:55:22.958Z,9.00
2018-12-21T02:57:50.375Z,9.00
2018-12-21T03:00:17.826Z,9.00
2018-12-21T03:02:45.318Z,9.00
2018-12-21T03:05:12.812Z,9.00
2018-12-21T03:07:40.258Z,9.00
2018-12-21T03:10:07.756Z,9.10
2018-12-21T03:12:35.211Z,9.10
2018-12-21T03:15:03.574Z,9.20
2018-12-21T03:17:31.040Z,9.20
2018-12-21T03:19:58.497Z,9.20
2018-12-21T03:22:25.941Z,9.20
2018-12-21T03:24:53.384Z,9.20
2018-12-21T03:27:20.829Z,9.30
2018-12-21T03:29:48.266Z,9.20
2018-12-21T03:32:15.730Z,9.30
2018-12-21T03:34:43.257Z,9.30
2018-12-21T03:37:10.706Z,9.40
2018-12-21T03:39:38.160Z,9.40
2018-12-21T03:42:05.614Z,9.40
2018-12-21T03:44:33.082Z,9.40
2018-12-21T03:47:00.555Z,9.50
2018-12-21T03:49:28.010Z,9.60
2018-12-21T03:51:55.492Z,9.60
2018-12-21T03:54:22.930Z,9.50
2018-12-21T03:56:50.386Z,9.50
2018-12-21T03:59:17.818Z,9.50
2018-12-21T04:01:45.282Z,9.50
2018-12-21T04:04:12.708Z,9.50
2018-12-21T04:06:40.156Z,9.40
2018-12-21T04:09:07.633Z,9.40
2018-12-21T04:11:35.102Z,9.40
2018-12-21T04:14:02.536Z,9.50
2018-12-21T04:16:29.976Z,9.40
2018-12-21T04:18:57.431Z,9.40
2018-12-21T04:21:24.997Z,9.40
2018-12-21T04:23:52.445Z,9.30
2018-12-21T04:26:19.895Z,9.30
2018-12-21T04:28:47.365Z,9.30
2018-12-21T04:31:15.073Z,9.30
2018-12-21T04:33:42.689Z,9.30
2018-12-21T04:36:10.289Z,9.30
2018-12-21T04:38:37.728Z,9.30
2018-12-21T04:41:05.190Z,9.40
2018-12-21T04:43:32.636Z,9.50
2018-12-21T04:46:00.082Z,9.50
2018-12-21T04:48:27.612Z,9.50
2018-12-21T04:50:55.086Z,9.50
2018-12-21T04:53:22.502Z,9.60
2018-12-21T04:55:49.962Z,9.50
2018-12-21T04:58:17.391Z,9.50
2018-12-21T05:00:44.860Z,9.60
2018-12-21T05:03:12.313Z,9.70
2018-12-21T05:05:39.802Z,9.70
2018-12-21T05:08:07.333Z,9.80
2018-12-21T05:10:34.830Z,9.90
2018-12-21T05:13:02.291Z,9.90
2018-12-21T05:15:29.746Z,10.00
2018-12-21T05:17:57.207Z,10.10
2018-12-21T05:20:24.706Z,10.20
2018-12-21T05:22:52.671Z,10.20
2018-12-21T05:25:20.218Z,10.30
2018-12-21T05:27:47.681Z,10.40
2018-12-21T05:30:15.146Z,10.40
2018-12-21T05:32:42.579Z,10.50
2018-12-21T05:35:10.054Z,10.40
2018-12-21T05:37:37.573Z,10.60
2018-12-21T05:40:06.041Z,10.60
2018-12-21T05:42:33.496Z,10.70
2018-12-21T05:45:01.029Z,10.60
2018-12-21T05:47:28.492Z,10.60
2018-12-21T05:49:55.947Z,10.60
2018-12-21T05:52:23.666Z,10.60
2018-12-21T05:54:51.116Z,10.60
2018-12-21T05:57:18.577Z,10.50
2018-12-21T05:59:46.021Z,10.60
2018-12-21T06:02:13.492Z,10.60
2018-12-21T06:04:40.936Z,10.50
2018-12-21T06:07:08.385Z,10.50
2018-12-21T06:09:35.847Z,10.40
2018-12-21T06:12:03.283Z,10.40
2018-12-21T06:14:30.736Z,10.30
2018-12-21T06:16:58.194Z,10.30
2018-12-21T06:19:25.632Z,10.30
2018-12-21T06:21:53.092Z,10.20
2018-12-21T06:24:20.565Z,10.20
2018-12-21T06:26:47.999Z,10.20
2018-12-21T06:29:15.449Z,10.10
2018-12-21T06:31:42.983Z,10.10
2018-12-21T06:34:10.517Z,10.10
2018-12-21T06:36:37.967Z,10.10
2018-12-21T06:39:06.274Z,10.20
2018-12-21T06:41:33.717Z,10.30
2018-12-21T06:44:01.183Z,10.40
2018-12-21T06:46:28.748Z,10.40
2018-12-21T06:48:56.202Z,10.40
2018-12-21T06:51:23.662Z,10.40
2018-12-21T06:53:51.127Z,10.50
2018-12-21T06:56:18.614Z,10.50
2018-12-21T06:58:46.069Z,10.60
2018-12-21T07:01:13.600Z,10.70
2018-12-21T07:03:41.042Z,10.70
2018-12-21T07:06:08.482Z,10.80
2018-12-21T07:08:35.974Z,10.80
2018-12-21T07:11:03.496Z,10.80
2018-12-21T07:13:30.980Z,10.80
2018-12-21T07:15:58.443Z,10.80
2018-12-21T07:18:26.000Z,10.70
2018-12-21T07:20:53.443Z,10.60
2018-12-21T07:23:27.137Z,10.70
2018-12-21T07:25:50.350Z,10.60
2018-12-21T07:28:17.797Z,10.50
2018-12-21T07:30:45.448Z,10.50
2018-12-21T07:33:12.932Z,10.40
2018-12-21T07:35:40.464Z,10.30
2018-12-21T07:38:08.047Z,10.30
2018-12-21T07:40:35.530Z,10.20
2018-12-21T07:43:02.967Z,10.10
2018-12-21T07:45:30.451Z,10.10
2018-12-21T07:47:57.917Z,10.10
2018-12-21T07:50:25.360Z,10.10
2018-12-21T07:52:53.409Z,10.00
2018-12-21T07:55:20.964Z,10.00
2018-12-21T07:57:48.421Z,9.90
2018-12-21T08:00:15.934Z,9.90
2018-12-21T08:02:43.373Z,9.80
2018-12-21T08:05:10.834Z,9.70
2018-12-21T08:07:38.281Z,9.70
2018-12-21T08:10:09.282Z,9.70
2018-12-21T08:12:36.791Z,9.70
2018-12-21T08:15:05.253Z,9.60
2018-12-21T08:17:32.730Z,9.70
2018-12-21T08:20:00.164Z,9.70
2018-12-21T08:22:27.637Z,9.70
2018-12-21T08:24:55.097Z,9.70
2018-12-21T08:27:22.553Z,9.60
2018-12-21T08:29:50.017Z,9.70
2018-12-21T08:32:17.500Z,9.70
2018-12-21T08:34:44.961Z,9.60
2018-12-21T08:37:12.409Z,9.60
2018-12-21T08:39:39.851Z,9.70
2018-12-21T08:42:07.373Z,9.70
2018-12-21T08:44:34.814Z,9.80
2018-12-21T08:47:02.275Z,9.80
2018-12-21T08:49:29.716Z,9.80
2018-12-21T08:51:57.211Z,9.90
2018-12-21T08:54:24.695Z,10.00
2018-12-21T08:56:52.158Z,10.10
2018-12-21T08:59:19.632Z,10.20
2018-12-21T09:01:47.093Z,10.30
2018-12-21T09:04:14.568Z,10.40
2018-12-21T09:06:42.036Z,10.40
2018-12-21T09:09:09.541Z,10.50
2018-12-21T09:11:36.973Z,10.50
2018-12-21T09:14:04.469Z,10.70
2018-12-21T09:16:31.931Z,10.70
2018-12-21T09:18:59.384Z,10.80
2018-12-21T09:21:26.850Z,10.90
2018-12-21T09:24:01.156Z,11.00
2018-12-21T09:26:23.769Z,11.00
2018-12-21T09:28:51.215Z,11.10
2018-12-21T09:31:18.669Z,11.10
2018-12-21T09:33:46.131Z,11.20
2018-12-21T09:36:13.598Z,11.20
2018-12-21T09:38:41.034Z,11.20
2018-12-21T09:41:08.509Z,11.20
2018-12-21T09:43:35.949Z,11.30
2018-12-21T09:46:03.474Z,11.30
2018-12-21T09:48:30.945Z,11.30
2018-12-21T09:50:58.380Z,11.40
2018-12-21T09:53:25.832Z,11.30
2018-12-21T09:55:53.298Z,11.40
2018-12-21T09:58:20.751Z,11.40
2018-12-21T10:00:48.204Z,11.40
2018-12-21T10:03:15.647Z,11.40
2018-12-21T10:05:43.104Z,11.20
2018-12-21T10:08:10.555Z,11.20
2018-12-21T10:10:38.019Z,11.00
2018-12-21T10:13:05.480Z,10.90
2018-12-21T10:15:32.940Z,10.80
2018-12-21T10:18:00.407Z,10.70
2018-12-21T10:20:27.930Z,10.70
2018-12-21T10:22:55.392Z,10.60
2018-12-21T10:25:22.852Z,10.70
2018-12-21T10:27:50.397Z,10.70
2018-12-21T10:30:17.824Z,10.60
2018-12-21T10:32:45.294Z,10.70
2018-12-21T10:35:12.744Z,10.80
2018-12-21T10:37:40.202Z,10.80
2018-12-21T10:40:07.773Z,10.90
2018-12-21T10:42:35.205Z,11.00
2018-12-21T10:45:02.898Z,11.10
2018-12-21T10:47:30.347Z,11.00
2018-12-21T10:49:57.815Z,11.00
2018-12-21T10:52:25.273Z,11.10
2018-12-21T10:54:52.719Z,11.20
2018-12-21T10:57:20.175Z,11.30
2018-12-21T10:59:47.629Z,11.40
2018-12-21T11:02:15.141Z,11.40
2018-12-21T11:04:42.587Z,11.30
2018-12-21T11:07:10.037Z,11.40
2018-12-21T11:09:37.501Z,11.50
2018-12-21T11:12:04.956Z,11.50
2018-12-21T11:14:32.401Z,11.50
2018-12-21T11:16:59.878Z,11.60
2018-12-21T11:19:27.315Z,11.60
2018-12-21T11:21:54.783Z,11.60
2018-12-21T11:24:22.231Z,11.60
2018-12-21T11:26:49.773Z,11.60
2018-12-21T11:29:17.229Z,11.70
2018-12-21T11:31:44.672Z,11.70
2018-12-21T11:34:12.125Z,11.60
2018-12-21T11:36:39.574Z,11.50
2018-12-21T11:39:07.012Z,11.50
2018-12-21T11:41:34.503Z,11.40
2018-12-21T11:44:01.958Z,11.30
2018-12-21T11:46:29.395Z,11.40
2018-12-21T11:48:56.862Z,11.30
2018-12-21T11:51:24.337Z,11.40
2018-12-21T11:53:51.769Z,11.40
2018-12-21T11:56:19.213Z,11.40
2018-12-21T11:58:46.721Z,11.40
2018-12-21T12:01:15.141Z,11.40
2018-12-21T12:03:42.584Z,11.40
2018-12-21T12:06:10.039Z,11.40
2018-12-21T12:08:37.501Z,11.40
2018-12-21T12:11:04.944Z,11.40
2018-12-21T12:13:32.405Z,11.40
2018-12-21T12:15:59.844Z,11.40
2018-12-21T12:18:27.317Z,11.40
2018-12-21T12:20:54.782Z,11.40
2018-12-21T12:23:22.251Z,11.40
2018-12-21T12:25:49.689Z,11.40
2018-12-21T12:28:17.137Z,11.40
2018-12-21T12:30:44.588Z,11.40
2018-12-21T12:33:12.033Z,11.40
2018-12-21T12:35:39.502Z,11.30
2018-12-21T12:38:06.936Z,11.20
2018-12-21T12:40:34.383Z,11.20
2018-12-21T12:43:01.859Z,11.20
2018-12-21T12:45:29.361Z,11.10
2018-12-21T12:47:56.821Z,11.10
2018-12-21T12:50:24.337Z,11.10
2018-12-21T12:52:51.800Z,11.10
2018-12-21T12:55:19.231Z,11.10
2018-12-21T12:57:46.694Z,11.10
2018-12-21T13:00:14.207Z,11.10
2018-12-21T13:02:41.649Z,11.00
2018-12-21T13:05:09.172Z,11.10
2018-12-21T13:07:36.713Z,11.10
2018-12-21T13:10:07.067Z,11.20
2018-12-21T13:12:34.549Z,11.20
2018-12-21T13:15:01.992Z,11.20
2018-12-21T13:17:29.477Z,11.20
2018-12-21T13:19:56.977Z,11.20
2018-12-21T13:22:24.570Z,11.20
2018-12-21T13:24:52.023Z,11.30
2018-12-21T13:27:19.471Z,11.30
2018-12-21T13:29:46.986Z,11.30
2018-12-21T13:32:14.488Z,11.50
2018-12-21T13:34:41.931Z,11.50
2018-12-21T13:37:09.461Z,11.50
2018-12-21T13:39:36.910Z,11.60
2018-12-21T13:42:04.351Z,11.60
2018-12-21T13:44:31.868Z,11.60
2018-12-21T13:46:59.301Z,11.60
2018-12-21T13:49:26.745Z,11.60
2018-12-21T13:51:54.189Z,11.60
2018-12-21T13:54:21.783Z,11.60
2018-12-21T13:56:49.215Z,11.60
2018-12-21T13:59:16.668Z,11.70
2018-12-21T14:01:44.126Z,11.70
2018-12-21T14:04:11.581Z,11.70
2018-12-21T14:06:39.041Z,11.70
2018-12-21T14:09:06.601Z,11.60
2018-12-21T14:11:34.118Z,11.60
2018-12-21T14:14:01.574Z,11.70
2018-12-21T14:16:29.083Z,11.70
2018-12-21T14:18:56.516Z,11.80
2018-12-21T14:21:24.004Z,11.80
2018-12-21T14:23:51.483Z,11.80
2018-12-21T14:26:19.012Z,11.90
2018-12-21T14:28:46.480Z,11.90
2018-12-21T14:31:13.939Z,11.80
2018-12-21T14:33:41.505Z,11.80
2018-12-21T14:36:08.945Z,11.80
2018-12-21T14:38:36.377Z,11.80
2018-12-21T14:41:03.837Z,11.80
2018-12-21T14:43:31.362Z,11.90
2018-12-21T14:45:58.819Z,11.90
2018-12-21T14:48:26.267Z,11.80
2018-12-21T14:50:53.699Z,11.90
2018-12-21T14:53:22.523Z,11.80
2018-12-21T14:55:49.961Z,11.80
2018-12-21T14:58:17.402Z,11.80
2018-12-21T15:00:44.860Z,11.70
2018-12-21T15:03:12.418Z,11.80
2018-12-21T15:05:39.877Z,11.80
2018-12-21T15:08:07.329Z,11.80
2018-12-21T15:10:34.790Z,11.90
2018-12-21T15:13:02.297Z,11.90
2018-12-21T15:15:29.747Z,11.80
2018-12-21T15:17:57.273Z,11.80
2018-12-21T15:20:24.838Z,11.80
2018-12-21T15:22:52.388Z,11.80
2018-12-21T15:25:19.840Z,11.80
2018-12-21T15:27:47.274Z,11.80
2018-12-21T15:30:14.819Z,11.80
2018-12-21T15:32:42.354Z,11.80
2018-12-21T15:35:09.832Z,11.80
2018-12-21T15:37:37.295Z,11.80
2018-12-21T15:40:05.944Z,11.80
2018-12-21T15:42:33.393Z,11.80
2018-12-21T15:45:00.855Z,11.80
2018-12-21T15:47:28.341Z,11.70
2018-12-21T15:49:55.819Z,11.80
2018-12-21T15:52:23.259Z,11.70
2018-12-21T15:54:50.687Z,11.70
2018-12-21T15:57:18.195Z,11.80
2018-12-21T15:59:45.667Z,11.70
2018-12-21T16:02:13.119Z,11.70
2018-12-21T16:04:40.571Z,11.70
2018-12-21T16:07:07.996Z,11.70
2018-12-21T16:09:35.675Z,11.70
2018-12-21T16:12:03.155Z,11.70
2018-12-21T16:14:34.610Z,11.70
2018-12-21T16:17:00.041Z,11.70
2018-12-21T16:19:27.526Z,11.70
2018-12-21T16:21:54.980Z,11.70
2018-12-21T16:24:22.462Z,11.70
2018-12-21T16:26:49.921Z,11.70
2018-12-21T16:29:17.370Z,11.70
2018-12-21T16:31:44.826Z,11.70
2018-12-21T16:34:12.279Z,11.70
2018-12-21T16:36:39.820Z,11.80
2018-12-21T16:39:07.441Z,11.80
2018-12-21T16:41:34.963Z,11.70
2018-12-21T16:44:02.446Z,11.70
2018-12-21T16:46:29.941Z,11.80
2018-12-21T16:48:57.423Z,11.80
2018-12-21T16:51:24.925Z,11.90
2018-12-21T16:53:52.360Z,11.80
2018-12-21T16:56:19.811Z,11.80
2018-12-21T16:58:47.257Z,11.80
2018-12-21T17:01:14.718Z,11.80
2018-12-21T17:03:42.166Z,11.70
2018-12-21T17:06:09.635Z,11.80
2018-12-21T17:08:37.089Z,11.70
2018-12-21T17:11:04.558Z,11.70
2018-12-21T17:13:31.994Z,11.70
2018-12-21T17:15:59.461Z,11.70
2018-12-21T17:18:26.918Z,11.70
2018-12-21T17:20:54.365Z,11.60
2018-12-21T17:23:21.803Z,11.60
2018-12-21T17:25:49.297Z,11.60
2018-12-21T17:28:16.751Z,11.70
2018-12-21T17:30:44.226Z,11.70
2018-12-21T17:33:11.693Z,11.70
2018-12-21T17:35:39.145Z,11.70
2018-12-21T17:38:06.619Z,11.70
2018-12-21T17:40:34.065Z,11.70
2018-12-21T17:43:01.515Z,11.70
2018-12-21T17:45:28.986Z,11.70
2018-12-21T17:47:56.431Z,11.70
2018-12-21T17:50:23.946Z,11.70
2018-12-21T17:52:51.413Z,11.70
2018-12-21T17:55:18.862Z,11.70
2018-12-21T17:57:46.331Z,11.70
2018-12-21T18:00:14.563Z,11.70
2018-12-21T18:02:43.549Z,11.70
2018-12-21T18:05:10.987Z,11.80
2018-12-21T18:07:38.426Z,11.80
2018-12-21T18:10:09.309Z,11.80
2018-12-21T18:12:36.759Z,11.80
2018-12-21T18:15:06.736Z,11.90
2018-12-21T18:17:34.282Z,11.80
2018-12-21T18:20:01.725Z,11.90
2018-12-21T18:22:29.278Z,11.90
2018-12-21T18:24:57.534Z,11.90
2018-12-21T18:27:25.134Z,11.90
2018-12-21T18:29:52.577Z,12.00
2018-12-21T18:32:20.235Z,12.00
2018-12-21T18:34:47.713Z,12.00
2018-12-21T18:37:15.173Z,11.90
2018-12-21T18:39:42.635Z,11.90
2018-12-21T18:42:10.163Z,11.90
2018-12-21T18:44:37.701Z,12.00
2018-12-21T18:47:05.151Z,12.00
2018-12-21T18:49:32.601Z,11.90
2018-12-21T18:52:00.050Z,11.90
2018-12-21T18:54:27.566Z,12.00
2018-12-21T18:56:55.053Z,12.00
2018-12-21T18:59:22.578Z,12.00
2018-12-21T19:01:50.040Z,12.00
2018-12-21T19:04:18.445Z,12.10
2018-12-21T19:06:45.897Z,12.10
2018-12-21T19:09:13.345Z,12.10
2018-12-21T19:11:40.805Z,12.00
2018-12-21T19:14:08.272Z,12.10
2018-12-21T19:16:35.714Z,12.10
2018-12-21T19:19:03.268Z,12.10
2018-12-21T19:21:30.714Z,12.10
2018-12-21T19:23:58.154Z,12.10
2018-12-21T19:26:25.610Z,12.00
2018-12-21T19:28:53.048Z,11.90
2018-12-21T19:31:20.525Z,12.00
2018-12-21T19:33:47.965Z,12.00
2018-12-21T19:36:15.399Z,12.00
2018-12-21T19:38:42.861Z,11.90
2018-12-21T19:41:11.887Z,11.90
2018-12-21T19:43:39.659Z,11.90
2018-12-21T19:46:07.101Z,11.90
2018-12-21T19:48:34.587Z,11.90
2018-12-21T19:51:02.015Z,11.90
2018-12-21T19:53:29.476Z,11.90
2018-12-21T19:55:57.026Z,11.90
2018-12-21T19:58:24.502Z,12.00
2018-12-21T20:00:52.551Z,12.00
2018-12-21T20:03:20.000Z,11.90
2018-12-21T20:05:47.467Z,11.90
2018-12-21T20:08:14.959Z,12.00
2018-12-21T20:10:42.408Z,12.00
2018-12-21T20:13:09.853Z,12.00
2018-12-21T20:15:37.324Z,12.00
2018-12-21T20:18:04.754Z,11.90
2018-12-21T20:20:32.197Z,12.00
2018-12-21T20:22:59.644Z,12.10
2018-12-21T20:25:27.140Z,12.10
2018-12-21T20:27:54.610Z,12.10
2018-12-21T20:30:22.074Z,12.10
2018-12-21T20:32:49.506Z,12.10
2018-12-21T20:35:17.015Z,12.10
2018-12-21T20:37:44.468Z,12.20
2018-12-21T20:40:12.818Z,12.10
2018-12-21T20:42:40.375Z,12.10
2018-12-21T20:45:09.849Z,12.10
2018-12-21T20:47:37.346Z,12.10
2018-12-21T20:50:09.422Z,12.10
2018-12-21T20:52:36.883Z,12.10
2018-12-21T20:55:07.898Z,12.10
2018-12-21T20:57:35.694Z,12.20
2018-12-21T21:00:08.335Z,12.20
2018-12-21T21:02:35.781Z,12.20
2018-12-21T21:05:03.245Z,12.20
2018-12-21T21:07:30.803Z,12.20
2018-12-21T21:09:58.239Z,12.20
2018-12-21T21:12:25.691Z,12.20
2018-12-21T21:14:53.215Z,12.20
2018-12-21T21:17:20.639Z,12.10
2018-12-21T21:19:48.079Z,12.10
2018-12-21T21:22:16.554Z,12.10
2018-12-21T21:24:44.002Z,12.10
2018-12-21T21:27:11.462Z,12.10
2018-12-21T21:29:38.913Z,12.20
2018-12-21T21:32:06.355Z,12.20
2018-12-21T21:34:33.823Z,12.10
2018-12-21T21:37:01.362Z,12.20
2018-12-21T21:39:28.862Z,12.20
2018-12-21T21:41:56.385Z,12.20
2018-12-21T21:44:23.852Z,12.20
2018-12-21T21:46:51.303Z,12.20
2018-12-21T21:49:19.519Z,12.30
2018-12-21T21:51:47.129Z,12.20
2018-12-21T21:54:14.587Z,12.20
2018-12-21T21:56:42.106Z,12.20
2018-12-21T21:59:09.649Z,12.20
2018-12-21T22:01:37.140Z,12.30
2018-12-21T22:04:04.599Z,12.30
2018-12-21T22:06:32.892Z,12.30
2018-12-21T22:09:00.449Z,12.30
2018-12-21T22:11:28.374Z,12.30
2018-12-21T22:13:55.829Z,12.30
2018-12-21T22:16:23.292Z,12.40
2018-12-21T22:18:50.749Z,12.40
2018-12-21T22:21:18.819Z,12.40
2018-12-21T22:23:46.381Z,12.40
2018-12-21T22:26:13.845Z,12.40
2018-12-21T22:28:41.322Z,12.40
2018-12-21T22:31:09.236Z,12.50
2018-12-21T22:33:36.768Z,12.50
2018-12-21T22:36:04.225Z,12.40
2018-12-21T22:38:31.720Z,12.50
2018-12-21T22:40:59.481Z,12.50
2018-12-21T22:43:27.035Z,12.50
2018-12-21T22:45:54.624Z,12.50
2018-12-21T22:48:22.130Z,12.50
2018-12-21T22:50:49.924Z,12.60
2018-12-21T22:53:17.472Z,12.50
2018-12-21T22:55:44.965Z,12.50
2018-12-21T22:58:12.423Z,12.50
2018-12-21T23:00:40.425Z,12.50
2018-12-21T23:03:08.026Z,12.50
2018-12-21T23:05:35.507Z,12.60
2018-12-21T23:08:03.884Z,12.60
2018-12-21T23:10:31.351Z,12.60
2018-12-21T23:12:58.867Z,12.50
2018-12-21T23:15:26.358Z,12.50
2018-12-21T23:17:53.824Z,12.70
2018-12-21T23:20:21.280Z,12.60
2018-12-21T23:22:48.734Z,12.70
2018-12-21T23:25:16.182Z,12.60
2018-12-21T23:27:43.629Z,12.60
2018-12-21T23:30:11.111Z,12.70
2018-12-21T23:32:38.557Z,12.70
2018-12-21T23:35:06.126Z,12.70
2018-12-21T23:37:33.593Z,12.70
2018-12-21T23:40:01.098Z,12.70
2018-12-21T23:42:28.529Z,12.70
2018-12-21T23:44:55.994Z,12.70
2018-12-21T23:47:23.442Z,12.70
2018-12-21T23:49:50.930Z,12.80
2018-12-21T23:52:18.472Z,12.90
2018-12-21T23:54:45.920Z,12.90
2018-12-21T23:57:13.411Z,12.80
2018-12-21T23:59:40.923Z,12.80
